AMX678 MMMX-MGGT
Flight info
| Callsign | AMX678 |
|---|---|
| Flight time | 1h 26m |
| Altitude | 37000 |
| Route | UKUNO3A UKUNO UT108 VER UA552 AUR |
| Aircraft | B38M/M-SDE1FGHILORVWXY/HB1 |
Departure
| Time | 2026-05-05 19:17 |
|---|---|
| Airport | Mexico City Benito Juárez International Airport (MMMX) |
Arrival
| Time | 2026-05-05 20:43 |
|---|---|
| Airport | La Aurora International Airport (MGGT) |
| Time | Latitude | Longitude | Altitude | Speed | Heading |
|---|---|---|---|---|---|
| 2026-05-05 18:58 | 19.43223 | -99.08624 | 7305 ft | 0 kts | 352° |
| 2026-05-05 19:11 | 19.43206 | -99.08621 | 7305 ft | 4 kts | 346° |
| 2026-05-05 19:11 | 19.43181 | -99.08611 | 7305 ft | 4 kts | 330° |
| 2026-05-05 19:11 | 19.43161 | -99.08594 | 7305 ft | 4 kts | 299° |
| 2026-05-05 19:11 | 19.43158 | -99.08572 | 7305 ft | 2 kts | 241° |
| 2026-05-05 19:12 | 19.43161 | -99.08567 | 7305 ft | 0 kts | 240° |
| 2026-05-05 19:14 | 19.43156 | -99.08576 | 7305 ft | 5 kts | 237° |
| 2026-05-05 19:14 | 19.43126 | -99.08624 | 7305 ft | 7 kts | 220° |
| 2026-05-05 19:14 | 19.43116 | -99.08624 | 7305 ft | 2 kts | 168° |
| 2026-05-05 19:14 | 19.43077 | -99.08607 | 7305 ft | 11 kts | 151° |
| 2026-05-05 19:15 | 19.42982 | -99.08553 | 7305 ft | 20 kts | 152° |
| 2026-05-05 19:15 | 19.42849 | -99.08477 | 7305 ft | 23 kts | 151° |
| 2026-05-05 19:15 | 19.42838 | -99.08340 | 7306 ft | 22 kts | 62° |
| 2026-05-05 19:15 | 19.42880 | -99.08260 | 7305 ft | 0 kts | 59° |
| 2026-05-05 19:16 | 19.42886 | -99.08249 | 7306 ft | 3 kts | 59° |
| 2026-05-05 19:16 | 19.42936 | -99.08161 | 7305 ft | 39 kts | 59° |
| 2026-05-05 19:16 | 19.43184 | -99.07722 | 7307 ft | 99 kts | 59° |
| 2026-05-05 19:16 | 19.43635 | -99.06919 | 7304 ft | 153 kts | 59° |
| 2026-05-05 19:17 | 19.44261 | -99.05805 | 7309 ft | 197 kts | 59° |
| 2026-05-05 19:17 | 19.45010 | -99.04512 | 7766 ft | 211 kts | 55° |
| 2026-05-05 19:17 | 19.45825 | -99.03230 | 8521 ft | 215 kts | 57° |
| 2026-05-05 19:17 | 19.46633 | -99.01885 | 9239 ft | 220 kts | 58° |
| 2026-05-05 19:18 | 19.47485 | -99.00465 | 9673 ft | 238 kts | 57° |
| 2026-05-05 19:18 | 19.48410 | -98.98919 | 10020 ft | 260 kts | 57° |
| 2026-05-05 19:18 | 19.49391 | -98.97243 | 10516 ft | 274 kts | 59° |
| 2026-05-05 19:18 | 19.50393 | -98.95450 | 10961 ft | 291 kts | 59° |
| 2026-05-05 19:19 | 19.51446 | -98.93572 | 11524 ft | 302 kts | 59° |
| 2026-05-05 19:19 | 19.52524 | -98.91655 | 12307 ft | 303 kts | 59° |
| 2026-05-05 19:19 | 19.53461 | -98.89630 | 12980 ft | 309 kts | 73° |
| 2026-05-05 19:19 | 19.54025 | -98.87422 | 13671 ft | 314 kts | 74° |
| 2026-05-05 19:20 | 19.54616 | -98.85174 | 14329 ft | 318 kts | 74° |
| 2026-05-05 19:20 | 19.55214 | -98.82904 | 14983 ft | 323 kts | 74° |
| 2026-05-05 19:20 | 19.55821 | -98.80600 | 15627 ft | 327 kts | 73° |
| 2026-05-05 19:20 | 19.56435 | -98.78257 | 16229 ft | 331 kts | 73° |
| 2026-05-05 19:21 | 19.57055 | -98.75894 | 16888 ft | 333 kts | 73° |
| 2026-05-05 19:21 | 19.57525 | -98.73448 | 17225 ft | 348 kts | 88° |
| 2026-05-05 19:21 | 19.57269 | -98.70868 | 17350 ft | 366 kts | 101° |
| 2026-05-05 19:21 | 19.56757 | -98.68133 | 17620 ft | 378 kts | 101° |
| 2026-05-05 19:22 | 19.56236 | -98.65404 | 17982 ft | 385 kts | 101° |
| 2026-05-05 19:22 | 19.55692 | -98.62632 | 18600 ft | 385 kts | 102° |
| 2026-05-05 19:22 | 19.55136 | -98.59835 | 19027 ft | 389 kts | 102° |
| 2026-05-05 19:22 | 19.54573 | -98.57006 | 19446 ft | 394 kts | 102° |
| 2026-05-05 19:23 | 19.54004 | -98.54155 | 19917 ft | 397 kts | 102° |
| 2026-05-05 19:23 | 19.53429 | -98.51284 | 20382 ft | 400 kts | 102° |
| 2026-05-05 19:23 | 19.52849 | -98.48384 | 20829 ft | 403 kts | 102° |
| 2026-05-05 19:23 | 19.52261 | -98.45450 | 21259 ft | 407 kts | 102° |
| 2026-05-05 19:24 | 19.51672 | -98.42511 | 21683 ft | 410 kts | 101° |
| 2026-05-05 19:24 | 19.51076 | -98.39543 | 22104 ft | 413 kts | 101° |
| 2026-05-05 19:24 | 19.50476 | -98.36560 | 22501 ft | 416 kts | 102° |
| 2026-05-05 19:24 | 19.49872 | -98.33552 | 22892 ft | 419 kts | 101° |
| 2026-05-05 19:25 | 19.49261 | -98.30517 | 23259 ft | 422 kts | 101° |
| 2026-05-05 19:25 | 19.48648 | -98.27473 | 23636 ft | 425 kts | 101° |
| 2026-05-05 19:25 | 19.48036 | -98.24440 | 24012 ft | 427 kts | 101° |
| 2026-05-05 19:25 | 19.47413 | -98.21353 | 24351 ft | 430 kts | 101° |
| 2026-05-05 19:26 | 19.46778 | -98.18206 | 24727 ft | 432 kts | 101° |
| 2026-05-05 19:26 | 19.46155 | -98.15126 | 25071 ft | 434 kts | 102° |
| 2026-05-05 19:26 | 19.45519 | -98.11986 | 25414 ft | 437 kts | 102° |
| 2026-05-05 19:26 | 19.44881 | -98.08834 | 25772 ft | 439 kts | 102° |
| 2026-05-05 19:27 | 19.44239 | -98.05667 | 26116 ft | 441 kts | 102° |
| 2026-05-05 19:27 | 19.43595 | -98.02481 | 26446 ft | 443 kts | 101° |
| 2026-05-05 19:27 | 19.43240 | -97.99238 | 26753 ft | 444 kts | 94° |
| 2026-05-05 19:27 | 19.42973 | -97.95961 | 27056 ft | 447 kts | 95° |
| 2026-05-05 19:28 | 19.42671 | -97.92674 | 27396 ft | 448 kts | 95° |
| 2026-05-05 19:28 | 19.42356 | -97.89382 | 27685 ft | 451 kts | 95° |
| 2026-05-05 19:28 | 19.42033 | -97.86074 | 27967 ft | 453 kts | 96° |
| 2026-05-05 19:28 | 19.41707 | -97.82756 | 28303 ft | 454 kts | 96° |
| 2026-05-05 19:29 | 19.41379 | -97.79423 | 28594 ft | 456 kts | 96° |
| 2026-05-05 19:29 | 19.41048 | -97.76079 | 28851 ft | 458 kts | 96° |
| 2026-05-05 19:29 | 19.40716 | -97.72723 | 29123 ft | 459 kts | 96° |
| 2026-05-05 19:29 | 19.40381 | -97.69349 | 29373 ft | 461 kts | 96° |
| 2026-05-05 19:30 | 19.40045 | -97.65968 | 29630 ft | 463 kts | 96° |
| 2026-05-05 19:30 | 19.39706 | -97.62568 | 29877 ft | 465 kts | 96° |
| 2026-05-05 19:30 | 19.39366 | -97.59159 | 30147 ft | 466 kts | 96° |
| 2026-05-05 19:30 | 19.39024 | -97.55745 | 30388 ft | 468 kts | 96° |
| 2026-05-05 19:31 | 19.38681 | -97.52315 | 30616 ft | 469 kts | 96° |
| 2026-05-05 19:31 | 19.38335 | -97.48868 | 30863 ft | 471 kts | 96° |
| 2026-05-05 19:31 | 19.37988 | -97.45419 | 31094 ft | 472 kts | 96° |
| 2026-05-05 19:31 | 19.37639 | -97.41955 | 31308 ft | 474 kts | 96° |
| 2026-05-05 19:32 | 19.37288 | -97.38484 | 31531 ft | 475 kts | 96° |
| 2026-05-05 19:32 | 19.36935 | -97.34996 | 31753 ft | 476 kts | 96° |
| 2026-05-05 19:32 | 19.36581 | -97.31506 | 31973 ft | 478 kts | 96° |
| 2026-05-05 19:32 | 19.36226 | -97.28002 | 32198 ft | 479 kts | 96° |
| 2026-05-05 19:33 | 19.35868 | -97.24487 | 32411 ft | 481 kts | 96° |
| 2026-05-05 19:33 | 19.35513 | -97.21006 | 32630 ft | 482 kts | 96° |
| 2026-05-05 19:33 | 19.35149 | -97.17434 | 32860 ft | 483 kts | 96° |
| 2026-05-05 19:33 | 19.34791 | -97.13935 | 33082 ft | 484 kts | 96° |
| 2026-05-05 19:34 | 19.34428 | -97.10393 | 33359 ft | 483 kts | 96° |
| 2026-05-05 19:34 | 19.34065 | -97.06857 | 33653 ft | 483 kts | 96° |
| 2026-05-05 19:34 | 19.33549 | -97.03359 | 33973 ft | 480 kts | 104° |
| 2026-05-05 19:35 | 19.32011 | -96.96497 | 34490 ft | 478 kts | 104° |
| 2026-05-05 19:35 | 19.31239 | -96.93071 | 34743 ft | 478 kts | 104° |
| 2026-05-05 19:35 | 19.30466 | -96.89646 | 34965 ft | 477 kts | 104° |
| 2026-05-05 19:35 | 19.29694 | -96.86234 | 35194 ft | 477 kts | 104° |
| 2026-05-05 19:36 | 19.28920 | -96.82813 | 35219 ft | 480 kts | 104° |
| 2026-05-05 19:36 | 19.27353 | -96.75899 | 35197 ft | 486 kts | 104° |
| 2026-05-05 19:37 | 19.25765 | -96.68912 | 35182 ft | 489 kts | 104° |
| 2026-05-05 19:37 | 19.24176 | -96.61924 | 35173 ft | 488 kts | 104° |
| 2026-05-05 19:38 | 19.22592 | -96.54977 | 35165 ft | 488 kts | 104° |
| 2026-05-05 19:38 | 19.20996 | -96.47991 | 35158 ft | 488 kts | 105° |
| 2026-05-05 19:39 | 19.19400 | -96.41015 | 35149 ft | 487 kts | 105° |
| 2026-05-05 19:39 | 19.17802 | -96.34043 | 35147 ft | 487 kts | 105° |
| 2026-05-05 19:40 | 19.16202 | -96.27075 | 35141 ft | 487 kts | 105° |
| 2026-05-05 19:40 | 19.14516 | -96.20143 | 35123 ft | 486 kts | 113° |
| 2026-05-05 19:40 | 19.12964 | -96.17002 | 35132 ft | 480 kts | 125° |
| 2026-05-05 19:41 | 19.11128 | -96.14045 | 35126 ft | 483 kts | 124° |
| 2026-05-05 19:41 | 19.07428 | -96.08150 | 35138 ft | 484 kts | 125° |
| 2026-05-05 19:42 | 19.03660 | -96.02254 | 35138 ft | 484 kts | 126° |
| 2026-05-05 19:42 | 18.99871 | -95.96344 | 35136 ft | 486 kts | 126° |
| 2026-05-05 19:43 | 18.96072 | -95.90425 | 35137 ft | 487 kts | 126° |
| 2026-05-05 19:43 | 18.92261 | -95.84493 | 35139 ft | 488 kts | 126° |
| 2026-05-05 19:44 | 18.88443 | -95.78555 | 35135 ft | 489 kts | 126° |
| 2026-05-05 19:44 | 18.84617 | -95.72611 | 35139 ft | 490 kts | 126° |
| 2026-05-05 19:45 | 18.80783 | -95.66661 | 35140 ft | 491 kts | 126° |
| 2026-05-05 19:45 | 18.76940 | -95.60701 | 35137 ft | 491 kts | 126° |
| 2026-05-05 19:46 | 18.73115 | -95.54777 | 35141 ft | 491 kts | 126° |
| 2026-05-05 19:46 | 18.69259 | -95.48808 | 35143 ft | 492 kts | 126° |
| 2026-05-05 19:47 | 18.65404 | -95.42848 | 35141 ft | 492 kts | 126° |
| 2026-05-05 19:47 | 18.61533 | -95.36869 | 35129 ft | 492 kts | 126° |
| 2026-05-05 19:48 | 18.57671 | -95.30907 | 35127 ft | 493 kts | 126° |
| 2026-05-05 19:48 | 18.53801 | -95.24940 | 35128 ft | 493 kts | 126° |
| 2026-05-05 19:49 | 18.49950 | -95.19008 | 35119 ft | 493 kts | 126° |
| 2026-05-05 19:49 | 18.46074 | -95.13043 | 35119 ft | 493 kts | 126° |
| 2026-05-05 19:50 | 18.42194 | -95.07078 | 35104 ft | 493 kts | 126° |
| 2026-05-05 19:50 | 18.38319 | -95.01126 | 35109 ft | 493 kts | 126° |
| 2026-05-05 19:51 | 18.34429 | -94.95156 | 35106 ft | 494 kts | 126° |
| 2026-05-05 19:51 | 18.30540 | -94.89192 | 35100 ft | 493 kts | 127° |
| 2026-05-05 19:52 | 18.26654 | -94.83239 | 35097 ft | 493 kts | 127° |
| 2026-05-05 19:52 | 18.22796 | -94.77335 | 35081 ft | 493 kts | 127° |
| 2026-05-05 19:53 | 18.18909 | -94.71391 | 35084 ft | 493 kts | 127° |
| 2026-05-05 19:53 | 18.15016 | -94.65446 | 35095 ft | 493 kts | 127° |
| 2026-05-05 19:54 | 18.11128 | -94.59512 | 35096 ft | 493 kts | 128° |
| 2026-05-05 19:54 | 18.08898 | -94.56807 | 35088 ft | 486 kts | 140° |
| 2026-05-05 19:54 | 18.06455 | -94.54335 | 35084 ft | 489 kts | 138° |
| 2026-05-05 19:55 | 18.01601 | -94.49326 | 35101 ft | 489 kts | 138° |
| 2026-05-05 19:55 | 17.97555 | -94.45182 | 35088 ft | 488 kts | 138° |
| 2026-05-05 19:56 | 17.92691 | -94.40204 | 35074 ft | 488 kts | 138° |
| 2026-05-05 19:56 | 17.87825 | -94.35229 | 35095 ft | 488 kts | 138° |
| 2026-05-05 19:57 | 17.82954 | -94.30253 | 35096 ft | 488 kts | 138° |
| 2026-05-05 19:57 | 17.78090 | -94.25288 | 35097 ft | 488 kts | 138° |
| 2026-05-05 19:58 | 17.73221 | -94.20323 | 35097 ft | 488 kts | 138° |
| 2026-05-05 19:58 | 17.68344 | -94.15352 | 35095 ft | 488 kts | 138° |
| 2026-05-05 19:59 | 17.63474 | -94.10393 | 35080 ft | 488 kts | 138° |
| 2026-05-05 19:59 | 17.58596 | -94.05430 | 35096 ft | 488 kts | 139° |
| 2026-05-05 20:00 | 17.53756 | -94.00509 | 35098 ft | 488 kts | 139° |
| 2026-05-05 20:00 | 17.48877 | -93.95553 | 35099 ft | 488 kts | 138° |
| 2026-05-05 20:01 | 17.43995 | -93.90597 | 35095 ft | 488 kts | 139° |
| 2026-05-05 20:01 | 17.39123 | -93.85655 | 35099 ft | 487 kts | 138° |
| 2026-05-05 20:02 | 17.34250 | -93.80717 | 35083 ft | 488 kts | 138° |
| 2026-05-05 20:02 | 17.29368 | -93.75773 | 35075 ft | 488 kts | 138° |
| 2026-05-05 20:03 | 17.24490 | -93.70837 | 35072 ft | 488 kts | 138° |
| 2026-05-05 20:03 | 17.19607 | -93.65900 | 35083 ft | 488 kts | 139° |
| 2026-05-05 20:04 | 17.14719 | -93.60961 | 35077 ft | 488 kts | 139° |
| 2026-05-05 20:04 | 17.09838 | -93.56033 | 35088 ft | 488 kts | 138° |
| 2026-05-05 20:05 | 17.04946 | -93.51099 | 35096 ft | 488 kts | 138° |
| 2026-05-05 20:05 | 17.00093 | -93.46207 | 35085 ft | 488 kts | 138° |
| 2026-05-05 20:06 | 16.95206 | -93.41284 | 35082 ft | 488 kts | 138° |
| 2026-05-05 20:06 | 16.90316 | -93.36361 | 35074 ft | 488 kts | 138° |
| 2026-05-05 20:07 | 16.85428 | -93.31449 | 35102 ft | 488 kts | 139° |
| 2026-05-05 20:07 | 16.80538 | -93.26538 | 35100 ft | 488 kts | 139° |
| 2026-05-05 20:08 | 16.75642 | -93.21625 | 35102 ft | 488 kts | 139° |
| 2026-05-05 20:08 | 16.70735 | -93.16705 | 35106 ft | 488 kts | 139° |
| 2026-05-05 20:09 | 16.65842 | -93.11802 | 35100 ft | 487 kts | 138° |
| 2026-05-05 20:09 | 16.60951 | -93.06905 | 35099 ft | 487 kts | 139° |
| 2026-05-05 20:10 | 16.56192 | -93.01875 | 35101 ft | 489 kts | 131° |
| 2026-05-05 20:10 | 16.51856 | -92.96398 | 35082 ft | 489 kts | 131° |
| 2026-05-05 20:11 | 16.47540 | -92.90924 | 35079 ft | 488 kts | 131° |
| 2026-05-05 20:11 | 16.43249 | -92.85482 | 35077 ft | 488 kts | 131° |
| 2026-05-05 20:12 | 16.38935 | -92.80016 | 35083 ft | 488 kts | 131° |
| 2026-05-05 20:12 | 16.34624 | -92.74557 | 35075 ft | 487 kts | 131° |
| 2026-05-05 20:13 | 16.30313 | -92.69102 | 35071 ft | 488 kts | 131° |
| 2026-05-05 20:13 | 16.25999 | -92.63647 | 35069 ft | 487 kts | 131° |
| 2026-05-05 20:14 | 16.21692 | -92.58206 | 35065 ft | 487 kts | 131° |
| 2026-05-05 20:14 | 16.17378 | -92.52759 | 35055 ft | 487 kts | 131° |
| 2026-05-05 20:15 | 16.13063 | -92.47315 | 35046 ft | 487 kts | 131° |
| 2026-05-05 20:15 | 16.08756 | -92.41885 | 35048 ft | 487 kts | 131° |
| 2026-05-05 20:16 | 16.04445 | -92.36456 | 35044 ft | 487 kts | 132° |
| 2026-05-05 20:16 | 16.00167 | -92.31071 | 35029 ft | 487 kts | 131° |
| 2026-05-05 20:17 | 15.95855 | -92.25647 | 35027 ft | 486 kts | 132° |
| 2026-05-05 20:17 | 15.91543 | -92.20227 | 35025 ft | 486 kts | 132° |
| 2026-05-05 20:18 | 15.87235 | -92.14817 | 35015 ft | 486 kts | 131° |
| 2026-05-05 20:18 | 15.82921 | -92.09403 | 35020 ft | 486 kts | 132° |
| 2026-05-05 20:19 | 15.78603 | -92.03987 | 35017 ft | 486 kts | 132° |
| 2026-05-05 20:19 | 15.74283 | -91.98573 | 35019 ft | 486 kts | 132° |
| 2026-05-05 20:20 | 15.69971 | -91.93173 | 35021 ft | 486 kts | 132° |
| 2026-05-05 20:20 | 15.65658 | -91.87775 | 35006 ft | 486 kts | 132° |
| 2026-05-05 20:21 | 15.61345 | -91.82380 | 35026 ft | 486 kts | 132° |
| 2026-05-05 20:21 | 15.57036 | -91.76994 | 35007 ft | 485 kts | 132° |
| 2026-05-05 20:22 | 15.52749 | -91.71641 | 35018 ft | 485 kts | 132° |
| 2026-05-05 20:22 | 15.48429 | -91.66247 | 35039 ft | 485 kts | 131° |
| 2026-05-05 20:23 | 15.44117 | -91.60870 | 35073 ft | 484 kts | 132° |
| 2026-05-05 20:23 | 15.39812 | -91.55505 | 35076 ft | 484 kts | 132° |
| 2026-05-05 20:24 | 15.35511 | -91.50148 | 35046 ft | 483 kts | 132° |
| 2026-05-05 20:24 | 15.33378 | -91.47492 | 34292 ft | 481 kts | 131° |
| 2026-05-05 20:24 | 15.31210 | -91.44797 | 33288 ft | 487 kts | 131° |
| 2026-05-05 20:24 | 15.29044 | -91.42104 | 32497 ft | 488 kts | 131° |
| 2026-05-05 20:25 | 15.26853 | -91.39383 | 31526 ft | 492 kts | 130° |
| 2026-05-05 20:25 | 15.24670 | -91.36670 | 30773 ft | 490 kts | 130° |
| 2026-05-05 20:25 | 15.22473 | -91.33943 | 29630 ft | 496 kts | 130° |
| 2026-05-05 20:25 | 15.20281 | -91.31223 | 28713 ft | 490 kts | 130° |
| 2026-05-05 20:26 | 15.18089 | -91.28503 | 27291 ft | 493 kts | 129° |
| 2026-05-05 20:26 | 15.15893 | -91.25780 | 25917 ft | 492 kts | 129° |
| 2026-05-05 20:26 | 15.13738 | -91.23109 | 24785 ft | 486 kts | 129° |
| 2026-05-05 20:26 | 15.11599 | -91.20458 | 23886 ft | 474 kts | 129° |
| 2026-05-05 20:27 | 15.09509 | -91.17868 | 22906 ft | 465 kts | 129° |
| 2026-05-05 20:27 | 15.07450 | -91.15318 | 21892 ft | 458 kts | 129° |
| 2026-05-05 20:27 | 15.05422 | -91.12807 | 20826 ft | 452 kts | 129° |
| 2026-05-05 20:27 | 15.03412 | -91.10317 | 19727 ft | 451 kts | 129° |
| 2026-05-05 20:28 | 15.01377 | -91.07828 | 18848 ft | 449 kts | 130° |
| 2026-05-05 20:28 | 14.99339 | -91.05419 | 17887 ft | 439 kts | 130° |
| 2026-05-05 20:28 | 14.97345 | -91.03058 | 16868 ft | 432 kts | 129° |
| 2026-05-05 20:28 | 14.95390 | -91.00741 | 15885 ft | 425 kts | 129° |
| 2026-05-05 20:29 | 14.93465 | -90.98459 | 14901 ft | 417 kts | 129° |
| 2026-05-05 20:29 | 14.91574 | -90.96218 | 14175 ft | 406 kts | 129° |
| 2026-05-05 20:29 | 14.89779 | -90.94090 | 14072 ft | 379 kts | 129° |
| 2026-05-05 20:29 | 14.88097 | -90.92097 | 13910 ft | 358 kts | 129° |
| 2026-05-05 20:30 | 14.86499 | -90.90205 | 13675 ft | 341 kts | 129° |
| 2026-05-05 20:30 | 14.84975 | -90.88401 | 13439 ft | 326 kts | 129° |
| 2026-05-05 20:30 | 14.83523 | -90.86676 | 13219 ft | 311 kts | 129° |
| 2026-05-05 20:30 | 14.82127 | -90.85027 | 13003 ft | 297 kts | 129° |
| 2026-05-05 20:31 | 14.80808 | -90.83466 | 12840 ft | 282 kts | 129° |
| 2026-05-05 20:31 | 14.79539 | -90.81966 | 12701 ft | 273 kts | 129° |
| 2026-05-05 20:31 | 14.78315 | -90.80518 | 12566 ft | 263 kts | 129° |
| 2026-05-05 20:31 | 14.77140 | -90.79128 | 12506 ft | 252 kts | 126° |
| 2026-05-05 20:32 | 14.76392 | -90.77559 | 12305 ft | 245 kts | 95° |
| 2026-05-05 20:32 | 14.76555 | -90.75874 | 12246 ft | 229 kts | 77° |
| 2026-05-05 20:32 | 14.76867 | -90.74303 | 12138 ft | 218 kts | 77° |
| 2026-05-05 20:32 | 14.77223 | -90.72843 | 12074 ft | 203 kts | 70° |
| 2026-05-05 20:33 | 14.77774 | -90.71495 | 11968 ft | 208 kts | 62° |
| 2026-05-05 20:33 | 14.78557 | -90.70211 | 11945 ft | 214 kts | 52° |
| 2026-05-05 20:33 | 14.79462 | -90.68971 | 11871 ft | 217 kts | 56° |
| 2026-05-05 20:33 | 14.80294 | -90.67665 | 11805 ft | 217 kts | 59° |
| 2026-05-05 20:34 | 14.81029 | -90.66329 | 11751 ft | 211 kts | 62° |
| 2026-05-05 20:34 | 14.81672 | -90.64982 | 11606 ft | 207 kts | 65° |
| 2026-05-05 20:34 | 14.82233 | -90.63620 | 11449 ft | 204 kts | 68° |
| 2026-05-05 20:34 | 14.82705 | -90.62286 | 11321 ft | 193 kts | 71° |
| 2026-05-05 20:35 | 14.83096 | -90.60985 | 11212 ft | 187 kts | 73° |
| 2026-05-05 20:35 | 14.83423 | -90.59686 | 11143 ft | 186 kts | 76° |
| 2026-05-05 20:35 | 14.83688 | -90.58374 | 11071 ft | 187 kts | 79° |
| 2026-05-05 20:35 | 14.83892 | -90.57049 | 11012 ft | 187 kts | 82° |
| 2026-05-05 20:36 | 14.84036 | -90.55710 | 10948 ft | 187 kts | 84° |
| 2026-05-05 20:36 | 14.84116 | -90.54368 | 10865 ft | 187 kts | 87° |
| 2026-05-05 20:36 | 14.84134 | -90.53018 | 10585 ft | 188 kts | 90° |
| 2026-05-05 20:36 | 14.84087 | -90.51676 | 10377 ft | 186 kts | 92° |
| 2026-05-05 20:37 | 14.83981 | -90.50337 | 10364 ft | 195 kts | 95° |
| 2026-05-05 20:37 | 14.83868 | -90.49384 | 10396 ft | 200 kts | 97° |
| 2026-05-05 20:37 | 14.83542 | -90.47472 | 10328 ft | 206 kts | 101° |
| 2026-05-05 20:37 | 14.83085 | -90.46091 | 10110 ft | 203 kts | 121° |
| 2026-05-05 20:38 | 14.82041 | -90.45116 | 9720 ft | 207 kts | 153° |
| 2026-05-05 20:38 | 14.80632 | -90.44855 | 9388 ft | 209 kts | 186° |
| 2026-05-05 20:38 | 14.79326 | -90.45390 | 9057 ft | 197 kts | 216° |
| 2026-05-05 20:38 | 14.78228 | -90.46118 | 8872 ft | 180 kts | 207° |
| 2026-05-05 20:39 | 14.77097 | -90.46635 | 8682 ft | 177 kts | 200° |
| 2026-05-05 20:39 | 14.75943 | -90.47059 | 8393 ft | 174 kts | 198° |
| 2026-05-05 20:39 | 14.74802 | -90.47440 | 8130 ft | 174 kts | 197° |
| 2026-05-05 20:39 | 14.73651 | -90.47813 | 7881 ft | 173 kts | 197° |
| 2026-05-05 20:40 | 14.72507 | -90.48186 | 7659 ft | 172 kts | 197° |
| 2026-05-05 20:40 | 14.71371 | -90.48554 | 7410 ft | 171 kts | 197° |
| 2026-05-05 20:40 | 14.70233 | -90.48918 | 7185 ft | 170 kts | 197° |
| 2026-05-05 20:40 | 14.69101 | -90.49281 | 6969 ft | 170 kts | 197° |
| 2026-05-05 20:41 | 14.67977 | -90.49639 | 6726 ft | 169 kts | 197° |
| 2026-05-05 20:41 | 14.67232 | -90.49881 | 6595 ft | 169 kts | 197° |
| 2026-05-05 20:41 | 14.66115 | -90.50241 | 6330 ft | 167 kts | 197° |
| 2026-05-05 20:41 | 14.65006 | -90.50600 | 6122 ft | 167 kts | 197° |
| 2026-05-05 20:42 | 14.63892 | -90.50959 | 5881 ft | 168 kts | 196° |
| 2026-05-05 20:42 | 14.62773 | -90.51309 | 5683 ft | 168 kts | 195° |
| 2026-05-05 20:42 | 14.61656 | -90.51675 | 5526 ft | 169 kts | 198° |
| 2026-05-05 20:42 | 14.60518 | -90.52045 | 5277 ft | 173 kts | 196° |
| 2026-05-05 20:43 | 14.59386 | -90.52405 | 4997 ft | 169 kts | 197° |
| 2026-05-05 20:43 | 14.58348 | -90.52742 | 4921 ft | 133 kts | 197° |
| 2026-05-05 20:43 | 14.57687 | -90.52956 | 4897 ft | 68 kts | 197° |
| 2026-05-05 20:43 | 14.57448 | -90.53051 | 4890 ft | 15 kts | 249° |
| 2026-05-05 20:44 | 14.57487 | -90.53089 | 4889 ft | 8 kts | 10° |
| 2026-05-05 20:44 | 14.57533 | -90.53076 | 4891 ft | 6 kts | 17° |
| 2026-05-05 20:44 | 14.57572 | -90.53064 | 4890 ft | 6 kts | 17° |
| 2026-05-05 20:44 | 14.57625 | -90.53047 | 4896 ft | 9 kts | 18° |
| 2026-05-05 20:45 | 14.57794 | -90.52991 | 4893 ft | 15 kts | 17° |
| 2026-05-05 20:45 | 14.57890 | -90.52961 | 4899 ft | 14 kts | 18° |
| 2026-05-05 20:45 | 14.57976 | -90.52933 | 4912 ft | 12 kts | 17° |
| 2026-05-05 20:46 | 14.58050 | -90.52910 | 4914 ft | 11 kts | 17° |
| 2026-05-05 20:46 | 14.58138 | -90.52881 | 4914 ft | 16 kts | 18° |
| 2026-05-05 20:46 | 14.58260 | -90.52840 | 4917 ft | 21 kts | 18° |
| 2026-05-05 20:46 | 14.58415 | -90.52791 | 4924 ft | 26 kts | 17° |
| 2026-05-05 20:47 | 14.58587 | -90.52735 | 4925 ft | 24 kts | 18° |
| 2026-05-05 20:47 | 14.58679 | -90.52732 | 4927 ft | 6 kts | 308° |
| 2026-05-05 20:47 | 14.58694 | -90.52760 | 4929 ft | 4 kts | 295° |
| 2026-05-05 20:47 | 14.58706 | -90.52785 | 4930 ft | 5 kts | 304° |
| 2026-05-05 20:48 | 14.58757 | -90.52817 | 4932 ft | 11 kts | 346° |
| 2026-05-05 20:48 | 14.58829 | -90.52804 | 4932 ft | 10 kts | 14° |
| 2026-05-05 20:48 | 14.58893 | -90.52783 | 4932 ft | 11 kts | 18° |
| 2026-05-05 20:48 | 14.58971 | -90.52759 | 4932 ft | 9 kts | 16° |
| 2026-05-05 20:49 | 14.59017 | -90.52745 | 4932 ft | 1 kts | 16° |
| 2026-05-05 20:49 | 14.59018 | -90.52745 | 4932 ft | 0 kts | 16° |
| 2026-05-05 20:49 | 14.59020 | -90.52745 | 4932 ft | 1 kts | 5° |
| 2026-05-05 20:50 | 14.59026 | -90.52748 | 4932 ft | 1 kts | 327° |
| 2026-05-05 20:50 | 14.59029 | -90.52757 | 4932 ft | 2 kts | 276° |
| 2026-05-05 20:50 | 14.59031 | -90.52788 | 4932 ft | 6 kts | 282° |
| 2026-05-05 20:50 | 14.59044 | -90.52828 | 4932 ft | 4 kts | 289° |
| 2026-05-05 20:51 | 14.59047 | -90.52839 | 4932 ft | 0 kts | 287° |